Time;durP1;ratioP1;P1;durP2;ratioP2;P2;SDS_P1;SDS_P2;PMS_P1;PMS_P2;Temp;Humidity;BMP_temperature;BMP_pressure;BME280_temperature;BME280_humidity;BME280_pressure;Samples;Min_cycle;Max_cycle;Signal;HPM_P1;HPM_P2
2023/09/16 00:02:07;;;;;;;;;;;;;;;16.62;42.41;100998.44;4898565;28;100611;-71
2023/09/16 00:04:33;;;;;;;;;;;;;;;16.57;42.29;100999.34;4932581;28;98115;-69
2023/09/16 00:06:59;;;;;;;;;;;;;;;16.52;42.39;100996.69;4925152;28;98350;-71
2023/09/16 00:09:25;;;;;;;;;;;;;;;16.50;42.45;100998.09;4926011;28;99531;-70
2023/09/16 00:11:52;;;;;;;;;;;;;;;16.45;42.40;100997.06;4937008;28;98538;-69
2023/09/16 00:14:19;;;;;;;;;;;;;;;16.41;42.38;100989.78;4924327;28;100088;-68
2023/09/16 00:16:46;;;;;;;;;;;;;;;16.36;42.51;100989.84;4938465;28;98110;-68
2023/09/16 00:19:12;;;;;;;;;;;;;;;16.32;42.41;100997.00;4903742;28;100000;-69
2023/09/16 00:21:41;;;;;;;;;;;;;;;16.29;42.50;100990.22;4900374;28;98354;-68
2023/09/16 00:24:10;;;;;;;;;;;;;;;16.26;42.48;100996.22;4953424;28;98108;-68
2023/09/16 00:26:37;;;;;;;;;;;;;;;16.24;42.35;100989.47;4906687;28;98250;-70
2023/09/16 00:29:04;;;;;;;;;;;;;;;16.20;42.34;100990.06;4921466;28;99970;-68
2023/09/16 00:31:31;;;;;;;;;;;;;;;16.18;42.64;100988.72;4926991;28;98203;-71
2023/09/16 00:33:57;;;;;;;;;;;;;;;16.15;42.58;100992.03;4931564;28;98599;-71
2023/09/16 00:36:24;;;;;;;;;;;;;;;16.12;42.63;100990.72;4921969;28;98473;-68
2023/09/16 00:38:51;;;;;;;;;;;;;;;16.09;42.55;100995.91;4939808;28;98582;-68
2023/09/16 00:41:18;;;;;;;;;;;;;;;16.05;42.35;100984.81;4914861;28;98598;-71
2023/09/16 00:43:44;;;;;;;;;;;;;;;16.03;42.48;100986.19;4929139;28;99097;-69
2023/09/16 00:46:11;;;;;;;;;;;;;;;16.00;42.61;100992.25;4931392;28;98303;-71
2023/09/16 00:48:38;;;;;;;;;;;;;;;15.97;42.29;100981.94;4926077;28;99017;-69
2023/09/16 00:51:04;;;;;;;;;;;;;;;15.93;42.47;100973.56;4925332;28;98149;-68
2023/09/16 00:53:31;;;;;;;;;;;;;;;15.91;42.63;100986.63;4923609;28;98722;-72
2023/09/16 00:55:57;;;;;;;;;;;;;;;15.88;42.56;100982.59;4925106;28;98690;-68
2023/09/16 00:58:24;;;;;;;;;;;;;;;15.87;42.60;100980.13;4918532;28;98394;-68
2023/09/16 01:00:50;;;;;;;;;;;;;;;15.85;42.73;100977.72;4954442;28;98727;-68
2023/09/16 01:03:16;;;;;;;;;;;;;;;15.83;42.56;100969.03;4922904;28;99226;-68
2023/09/16 01:05:46;;;;;;;;;;;;;;;15.81;42.46;100965.00;4958588;28;98672;-68
2023/09/16 01:08:13;;;;;;;;;;;;;;;15.78;42.50;100973.72;4928721;28;100624;-71
2023/09/16 01:10:40;;;;;;;;;;;;;;;15.76;42.50;100979.47;4930420;28;98748;-69
2023/09/16 01:13:08;;;;;;;;;;;;;;;15.73;42.59;100973.81;4954040;28;98116;-71
2023/09/16 01:15:37;;;;;;;;;;;;;;;15.68;42.82;100970.03;4957477;28;98403;-71
2023/09/16 01:18:46;;;;;;;;;;;;;;;15.66;42.69;100974.94;4936622;28;101713;-71
2023/09/16 01:21:13;;;;;;;;;;;;;;;15.62;42.55;100976.59;4886270;28;100218;-71
2023/09/16 01:23:40;;;;;;;;;;;;;;;15.61;42.73;100979.59;4894663;28;98445;-69
2023/09/16 01:26:07;;;;;;;;;;;;;;;15.59;42.59;100977.16;4920664;28;97956;-71
2023/09/16 01:28:34;;;;;;;;;;;;;;;15.57;42.62;100976.66;4905085;28;98501;-68
2023/09/16 01:31:02;;;;;;;;;;;;;;;15.55;42.64;100969.88;4949225;28;98410;-68
2023/09/16 01:33:37;;;;;;;;;;;;;;;15.53;42.57;100969.38;4939003;28;99868;-68
2023/09/16 01:36:05;;;;;;;;;;;;;;;15.51;42.56;100966.94;4929103;28;99957;-71
2023/09/16 01:38:33;;;;;;;;;;;;;;;15.50;42.62;100972.66;4924188;28;98583;-71
2023/09/16 01:41:00;;;;;;;;;;;;;;;15.48;42.78;100978.34;4922236;28;98646;-68
2023/09/16 01:43:27;;;;;;;;;;;;;;;15.46;42.92;100975.94;4923913;28;98705;-70
2023/09/16 01:45:54;;;;;;;;;;;;;;;15.44;42.66;100971.88;4925062;28;99556;-68
2023/09/16 01:48:21;;;;;;;;;;;;;;;15.41;42.64;100967.84;4924492;28;97955;-70
2023/09/16 01:50:47;;;;;;;;;;;;;;;15.41;42.83;100967.84;4921856;28;97984;-71
2023/09/16 01:53:16;;;;;;;;;;;;;;;15.41;42.92;100969.75;4937236;28;100445;-68
2023/09/16 01:55:42;;;;;;;;;;;;;;;15.40;42.82;100966.22;4939823;28;99929;-68
2023/09/16 01:58:08;;;;;;;;;;;;;;;15.39;42.58;100961.88;4951080;28;100085;-68
2023/09/16 02:00:36;;;;;;;;;;;;;;;15.40;42.70;100965.41;4921847;28;98095;-71
2023/09/16 02:03:03;;;;;;;;;;;;;;;15.39;42.77;100971.94;4903430;28;98582;-71
2023/09/16 02:05:30;;;;;;;;;;;;;;;15.38;43.00;100973.84;4907678;28;97947;-71
2023/09/16 02:07:58;;;;;;;;;;;;;;;15.36;42.65;100967.09;4935630;28;98152;-71
2023/09/16 02:10:25;;;;;;;;;;;;;;;15.35;42.92;100969.00;4925036;28;98351;-70
2023/09/16 02:12:52;;;;;;;;;;;;;;;15.34;42.96;100966.56;4881228;28;99071;-71
2023/09/16 02:15:19;;;;;;;;;;;;;;;15.33;42.84;100964.97;4903617;28;98230;-71
2023/09/16 02:17:46;;;;;;;;;;;;;;;15.32;42.68;100963.31;4886562;28;98341;-71
2023/09/16 02:20:13;;;;;;;;;;;;;;;15.31;42.91;100950.84;4869724;28;99567;-71
2023/09/16 02:22:44;;;;;;;;;;;;;;;15.28;42.86;100949.50;4883157;28;98313;-68
2023/09/16 02:25:10;;;;;;;;;;;;;;;15.29;42.65;100953.03;4887026;28;98364;-68
2023/09/16 02:27:36;;;;;;;;;;;;;;;15.27;42.69;100952.50;4900119;28;98387;-71
2023/09/16 02:30:04;;;;;;;;;;;;;;;15.25;42.77;100943.84;4885323;28;98381;-71
2023/09/16 02:32:31;;;;;;;;;;;;;;;15.23;42.79;100946.84;4888861;28;98354;-71
2023/09/16 02:34:57;;;;;;;;;;;;;;;15.23;42.79;100941.41;4899134;28;97926;-68
2023/09/16 02:37:23;;;;;;;;;;;;;;;15.19;42.77;100933.03;4898236;28;99829;-68
2023/09/16 02:39:49;;;;;;;;;;;;;;;15.19;42.91;100935.75;4901800;28;98061;-71
2023/09/16 02:42:15;;;;;;;;;;;;;;;15.18;42.67;100930.63;4913498;28;98129;-70
2023/09/16 02:44:42;;;;;;;;;;;;;;;15.17;43.00;100937.16;4905483;28;98069;-68
2023/09/16 02:47:08;;;;;;;;;;;;;;;15.16;43.05;100930.88;4899000;28;98026;-68
2023/09/16 02:49:35;;;;;;;;;;;;;;;15.16;42.94;100936.31;4884985;28;98391;-68
2023/09/16 02:52:01;;;;;;;;;;;;;;;15.14;43.15;100927.66;4872851;28;98338;-68
2023/09/16 02:54:27;;;;;;;;;;;;;;;15.13;43.09;100934.19;4881560;28;98038;-71
2023/09/16 02:56:54;;;;;;;;;;;;;;;15.13;43.08;100926.03;4914495;28;97952;-68
2023/09/16 02:59:21;;;;;;;;;;;;;;;15.12;43.10;100918.97;4883550;28;99665;-71
2023/09/16 03:01:48;;;;;;;;;;;;;;;15.11;42.71;100920.06;4885050;28;98340;-71
2023/09/16 03:04:15;;;;;;;;;;;;;;;15.09;43.18;100916.84;4884655;28;101310;-71
2023/09/16 03:06:41;;;;;;;;;;;;;;;15.10;43.00;100923.91;4901204;28;100215;-71
2023/09/16 03:09:08;;;;;;;;;;;;;;;15.09;42.88;100918.72;4884919;28;98578;-69
2023/09/16 03:11:37;;;;;;;;;;;;;;;15.08;43.11;100919.84;4896975;28;98454;-68
2023/09/16 03:14:04;;;;;;;;;;;;;;;15.07;43.10;100918.22;4954258;28;98362;-68
2023/09/16 03:16:31;;;;;;;;;;;;;;;15.05;43.14;100912.25;4902231;28;102681;-71
2023/09/16 03:19:00;;;;;;;;;;;;;;;15.05;43.27;100914.97;4936291;28;117012;-69
2023/09/16 03:21:26;;;;;;;;;;;;;;;15.03;42.95;100915.28;4951432;28;98333;-69
2023/09/16 03:23:53;;;;;;;;;;;;;;;15.04;42.93;100913.38;4940799;28;98391;-71
2023/09/16 03:26:21;;;;;;;;;;;;;;;15.04;43.12;100902.50;4927033;28;98327;-71
2023/09/16 03:28:47;;;;;;;;;;;;;;;15.03;42.88;100898.19;4935674;28;98969;-70
2023/09/16 03:31:14;;;;;;;;;;;;;;;15.01;43.10;100898.44;4936685;28;99345;-69
2023/09/16 03:33:41;;;;;;;;;;;;;;;15.01;42.88;100900.34;4924984;28;98895;-71
2023/09/16 03:36:08;;;;;;;;;;;;;;;14.99;43.11;100903.38;4919533;28;99381;-71
2023/09/16 03:38:35;;;;;;;;;;;;;;;14.97;42.90;100897.41;4921687;28;98644;-71
2023/09/16 03:41:04;;;;;;;;;;;;;;;14.94;43.22;100896.09;4911377;28;99047;-68
2023/09/16 03:43:30;;;;;;;;;;;;;;;14.94;43.28;100898.81;4923355;28;97991;-68
2023/09/16 03:45:57;;;;;;;;;;;;;;;14.94;43.10;100903.44;4923756;28;97997;-71
2023/09/16 03:48:23;;;;;;;;;;;;;;;14.92;43.02;100892.03;4906268;28;98031;-71
2023/09/16 03:50:50;;;;;;;;;;;;;;;14.93;43.07;100888.22;4949921;28;98266;-71
2023/09/16 03:53:18;;;;;;;;;;;;;;;14.91;43.29;100885.00;4941680;28;98416;-68
2023/09/16 03:55:46;;;;;;;;;;;;;;;14.90;43.04;100883.38;4905070;28;99666;-68
2023/09/16 03:58:12;;;;;;;;;;;;;;;14.89;43.00;100879.84;4937224;28;97891;-68
2023/09/16 04:00:39;;;;;;;;;;;;;;;14.87;43.20;100879.31;4926787;28;100091;-68
2023/09/16 04:03:07;;;;;;;;;;;;;;;14.86;43.30;100879.63;4952435;28;98375;-71
2023/09/16 04:05:33;;;;;;;;;;;;;;;14.84;43.05;100879.09;4941960;28;98235;-71
2023/09/16 04:08:00;;;;;;;;;;;;;;;14.81;43.21;100888.59;4953555;28;98542;-71
2023/09/16 04:10:26;;;;;;;;;;;;;;;14.79;43.13;100884.56;4923284;28;98360;-69
2023/09/16 04:12:53;;;;;;;;;;;;;;;14.77;43.47;100879.41;4900654;28;98087;-71
2023/09/16 04:15:20;;;;;;;;;;;;;;;14.76;43.16;100893.25;4907905;28;98353;-68
2023/09/16 04:17:48;;;;;;;;;;;;;;;14.75;43.12;100894.38;4928113;28;98276;-70
2023/09/16 04:20:15;;;;;;;;;;;;;;;14.70;43.11;100890.59;4918589;28;98291;-71
2023/09/16 04:22:42;;;;;;;;;;;;;;;14.70;43.15;100893.31;4905106;28;98327;-70
2023/09/16 04:25:08;;;;;;;;;;;;;;;14.68;43.32;100886.56;4918837;28;98382;-68
2023/09/16 04:27:35;;;;;;;;;;;;;;;14.66;43.08;100892.28;4920987;28;98733;-70
2023/09/16 04:30:03;;;;;;;;;;;;;;;14.64;43.07;100899.88;4921827;28;98022;-68
2023/09/16 04:32:30;;;;;;;;;;;;;;;14.61;43.45;100896.91;4907537;28;98929;-71
2023/09/16 04:34:59;;;;;;;;;;;;;;;14.60;42.97;100898.81;4920308;28;98376;-68
2023/09/16 04:37:26;;;;;;;;;;;;;;;14.58;43.49;100909.16;4940787;28;98083;-71
2023/09/16 04:39:53;;;;;;;;;;;;;;;14.57;43.07;100898.56;4921034;28;98231;-68
2023/09/16 04:42:19;;;;;;;;;;;;;;;14.56;43.36;100903.19;4928775;28;98285;-68
2023/09/16 04:44:48;;;;;;;;;;;;;;;14.55;43.02;100908.91;4912453;28;98840;-71
2023/09/16 04:47:14;;;;;;;;;;;;;;;14.53;43.30;100909.19;4927294;28;98150;-71
2023/09/16 04:49:40;;;;;;;;;;;;;;;14.49;43.39;100911.66;4929381;28;98194;-71
2023/09/16 04:52:08;;;;;;;;;;;;;;;14.49;43.10;100916.25;4935524;28;99070;-71
2023/09/16 04:54:35;;;;;;;;;;;;;;;14.51;43.13;100921.41;4928007;28;98577;-71
2023/09/16 04:57:03;;;;;;;;;;;;;;;14.49;43.01;100919.78;4931998;28;101174;-68
2023/09/16 04:59:32;;;;;;;;;;;;;;;14.48;43.13;100922.75;4928045;28;98376;-68
2023/09/16 05:01:59;;;;;;;;;;;;;;;14.48;43.41;100909.19;4930253;28;100288;-68
2023/09/16 05:04:25;;;;;;;;;;;;;;;14.47;43.15;100904.88;4961502;28;98552;-71
2023/09/16 05:06:53;;;;;;;;;;;;;;;14.46;43.42;100909.50;4926764;28;98237;-70
2023/09/16 05:09:22;;;;;;;;;;;;;;;14.46;43.11;100904.06;4924236;28;98363;-72
2023/09/16 05:11:49;;;;;;;;;;;;;;;14.48;43.25;100912.72;4909569;28;97987;-71
2023/09/16 05:14:16;;;;;;;;;;;;;;;14.50;43.17;100909.72;4904737;28;98907;-69
2023/09/16 05:16:42;;;;;;;;;;;;;;;14.58;43.13;100913.75;4907499;28;98388;-71
2023/09/16 05:19:09;;;;;;;;;;;;;;;14.65;42.82;100915.03;4941330;28;99900;-71
2023/09/16 05:21:35;;;;;;;;;;;;;;;14.70;42.77;100915.03;4945917;28;98197;-71
2023/09/16 05:24:02;;;;;;;;;;;;;;;14.79;42.66;100917.13;4931552;28;98260;-69
2023/09/16 05:26:29;;;;;;;;;;;;;;;14.89;42.99;100912.41;4925091;28;98187;-69
2023/09/16 05:28:56;;;;;;;;;;;;;;;14.97;42.70;100905.53;4924321;28;98584;-68
2023/09/16 05:31:23;;;;;;;;;;;;;;;15.03;42.96;100909.03;4926078;28;98651;-69
2023/09/16 05:33:50;;;;;;;;;;;;;;;15.09;42.90;100902.44;4939303;28;99126;-71
2023/09/16 05:36:23;;;;;;;;;;;;;;;15.15;42.87;100904.03;4925594;28;99179;-68
2023/09/16 05:38:50;;;;;;;;;;;;;;;15.18;43.04;100898.03;4923139;28;98086;-68
2023/09/16 05:41:16;;;;;;;;;;;;;;;15.19;43.11;100896.94;4922052;28;98855;-70
2023/09/16 05:43:42;;;;;;;;;;;;;;;15.19;43.05;100895.00;4959404;28;98626;-71
2023/09/16 05:46:08;;;;;;;;;;;;;;;15.22;42.73;100905.31;4920547;28;100065;-67
2023/09/16 05:48:35;;;;;;;;;;;;;;;15.25;42.78;100908.53;4937177;27;98006;-67
2023/09/16 05:51:02;;;;;;;;;;;;;;;15.29;42.72;100906.84;4957704;28;98622;-71
2023/09/16 05:53:29;;;;;;;;;;;;;;;15.36;42.95;100910.03;4920688;28;99046;-71
2023/09/16 05:55:55;;;;;;;;;;;;;;;15.41;42.82;100916.25;4937608;28;99132;-66
2023/09/16 05:58:21;;;;;;;;;;;;;;;15.44;42.98;100912.97;4958418;28;98932;-67
2023/09/16 06:00:57;;;;;;;;;;;;;;;15.51;42.65;100903.63;4926425;28;99404;-70
2023/09/16 06:03:23;;;;;;;;;;;;;;;15.58;42.93;100913.06;4931278;28;98370;-70
2023/09/16 06:05:55;;;;;;;;;;;;;;;15.67;42.59;100908.63;4942544;28;120474;-67
2023/09/16 06:08:21;;;;;;;;;;;;;;;15.76;42.42;100908.81;4923879;28;98243;-70
2023/09/16 06:10:48;;;;;;;;;;;;;;;15.85;42.51;100914.41;4954467;28;98529;-67
2023/09/16 06:13:14;;;;;;;;;;;;;;;15.91;42.66;100908.59;4922475;28;97983;-67
2023/09/16 06:15:43;;;;;;;;;;;;;;;16.00;42.53;100913.41;4921218;28;97922;-66
2023/09/16 06:18:09;;;;;;;;;;;;;;;16.06;42.45;100912.22;4924245;28;99760;-67
2023/09/16 06:20:35;;;;;;;;;;;;;;;16.15;42.42;100918.59;4910132;28;98382;-69
2023/09/16 06:23:03;;;;;;;;;;;;;;;16.23;42.51;100901.66;4925174;28;98376;-66
2023/09/16 06:25:31;;;;;;;;;;;;;;;16.35;42.55;100903.91;4917850;28;97990;-70
2023/09/16 06:27:59;;;;;;;;;;;;;;;16.49;42.32;100901.25;4920759;28;98464;-66
2023/09/16 06:30:25;;;;;;;;;;;;;;;16.62;42.37;100905.91;4904150;28;98313;-67
2023/09/16 06:32:55;;;;;;;;;;;;;;;16.74;42.33;100905.47;4925528;28;98119;-70
2023/09/16 06:35:22;;;;;;;;;;;;;;;16.96;42.08;100908.38;4941888;28;99798;-70
2023/09/16 06:37:49;;;;;;;;;;;;;;;17.43;41.57;100906.41;4923268;28;98593;-66
2023/09/16 06:40:16;;;;;;;;;;;;;;;17.52;41.76;100895.59;4902463;28;98893;-66
2023/09/16 06:42:43;;;;;;;;;;;;;;;18.02;41.20;100901.94;4958756;28;98123;-70
2023/09/16 06:45:11;;;;;;;;;;;;;;;18.54;40.95;100899.63;4921900;28;98909;-71
2023/09/16 06:47:37;;;;;;;;;;;;;;;18.50;41.24;100895.91;4938216;28;98137;-67
2023/09/16 06:50:04;;;;;;;;;;;;;;;18.42;41.28;100891.19;4939578;28;99170;-70
2023/09/16 06:52:30;;;;;;;;;;;;;;;18.42;41.48;100890.41;4940054;28;98737;-71
2023/09/16 06:54:56;;;;;;;;;;;;;;;18.48;41.49;100889.97;4940535;28;98515;-70
2023/09/16 06:57:23;;;;;;;;;;;;;;;18.62;41.46;100887.16;4919763;28;98968;-70
2023/09/16 06:59:50;;;;;;;;;;;;;;;18.76;41.29;100887.94;4923053;28;100435;-67
2023/09/16 07:02:17;;;;;;;;;;;;;;;18.85;41.37;100886.06;4940058;28;98692;-67
2023/09/16 07:04:45;;;;;;;;;;;;;;;18.94;41.48;100885.28;4937424;28;99107;-70
2023/09/16 07:07:11;;;;;;;;;;;;;;;19.05;41.38;100883.91;4933707;28;99598;-70
2023/09/16 07:09:38;;;;;;;;;;;;;;;19.22;41.37;100889.47;4902781;28;99582;-70
2023/09/16 07:12:07;;;;;;;;;;;;;;;19.32;41.53;100889.19;4937121;28;100357;-71
2023/09/16 07:14:37;;;;;;;;;;;;;;;19.37;41.40;100889.06;4919036;28;98419;-67
2023/09/16 07:17:04;;;;;;;;;;;;;;;19.52;41.28;100887.78;4953048;28;98130;-69
2023/09/16 07:19:31;;;;;;;;;;;;;;;19.50;41.41;100887.31;4901000;28;98084;-70
2023/09/16 07:22:00;;;;;;;;;;;;;;;19.58;41.50;100877.53;4916890;28;98370;-67
2023/09/16 07:24:27;;;;;;;;;;;;;;;19.62;41.71;100886.75;4921485;28;97985;-67
2023/09/16 07:26:53;;;;;;;;;;;;;;;19.61;41.63;100890.56;4920371;28;98456;-71
2023/09/16 07:29:22;;;;;;;;;;;;;;;19.63;41.74;100876.59;4922535;28;99673;-68
2023/09/16 07:31:48;;;;;;;;;;;;;;;19.76;41.56;100873.72;4923307;28;98559;-71
2023/09/16 07:34:19;;;;;;;;;;;;;;;19.89;41.37;100874.72;4912440;28;98422;-67
2023/09/16 07:36:46;;;;;;;;;;;;;;;19.97;41.46;100867.66;4926552;28;99141;-67
2023/09/16 07:39:13;;;;;;;;;;;;;;;20.06;41.47;100866.53;4910618;28;98218;-70
2023/09/16 07:41:40;;;;;;;;;;;;;;;20.19;41.34;100863.94;4922832;28;100381;-67
2023/09/16 07:44:06;;;;;;;;;;;;;;;20.34;41.29;100863.47;4921250;28;99361;-70
2023/09/16 07:46:34;;;;;;;;;;;;;;;20.38;41.36;100858.94;4903200;28;98638;-67
2023/09/16 07:49:02;;;;;;;;;;;;;;;20.56;41.19;100860.56;4935054;28;98236;-70
2023/09/16 07:51:28;;;;;;;;;;;;;;;21.09;40.80;100861.22;4921840;28;102330;-67
2023/09/16 07:53:55;;;;;;;;;;;;;;;21.11;40.89;100858.97;4938305;28;98942;-67
2023/09/16 07:56:22;;;;;;;;;;;;;;;21.10;41.01;100865.56;4901616;28;98340;-67
2023/09/16 07:58:48;;;;;;;;;;;;;;;21.30;40.94;100861.31;4907832;28;103784;-67
2023/09/16 08:01:14;;;;;;;;;;;;;;;21.32;40.97;100865.34;4922152;28;99964;-67
2023/09/16 08:03:42;;;;;;;;;;;;;;;21.90;40.56;100870.31;4957096;28;98456;-71
2023/09/16 08:06:08;;;;;;;;;;;;;;;22.36;39.99;100866.59;4902070;28;98846;-67
2023/09/16 08:08:35;;;;;;;;;;;;;;;22.79;39.98;100868.06;4910570;28;98200;-67
2023/09/16 08:11:02;;;;;;;;;;;;;;;23.24;39.77;100873.56;4898104;28;98632;-68
2023/09/16 08:13:29;;;;;;;;;;;;;;;23.68;39.49;100873.00;4922842;28;98671;-71
2023/09/16 08:15:56;;;;;;;;;;;;;;;24.12;39.34;100865.66;4924990;28;99534;-67
2023/09/16 08:18:23;;;;;;;;;;;;;;;24.59;39.01;100873.31;4918422;28;98455;-67
2023/09/16 08:20:51;;;;;;;;;;;;;;;24.81;39.29;100871.94;4936171;28;100326;-67
2023/09/16 08:23:17;;;;;;;;;;;;;;;25.36;38.95;100864.66;4938550;28;98139;-71
2023/09/16 08:25:45;;;;;;;;;;;;;;;25.78;38.75;100872.34;4938230;28;98327;-67
2023/09/16 08:28:11;;;;;;;;;;;;;;;26.20;38.72;100866.13;4942214;28;99739;-67
2023/09/16 08:30:37;;;;;;;;;;;;;;;26.61;38.30;100872.09;4945329;28;98217;-71
2023/09/16 08:33:03;;;;;;;;;;;;;;;27.00;38.51;100870.03;4905982;28;98340;-67
2023/09/16 08:35:29;;;;;;;;;;;;;;;27.43;38.23;100865.19;4940810;28;98515;-67
2023/09/16 08:37:58;;;;;;;;;;;;;;;27.84;38.30;100865.41;4904448;28;99639;-67
2023/09/16 08:40:25;;;;;;;;;;;;;;;28.23;37.98;100852.06;4922919;28;99340;-67
2023/09/16 08:43:15;;;;;;;;;;;;;;;28.60;37.91;100848.50;4917300;28;124633;-67
2023/09/16 08:45:44;;;;;;;;;;;;;;;29.05;37.92;100847.38;4950949;28;98479;-67
2023/09/16 08:48:13;;;;;;;;;;;;;;;29.46;37.45;100850.03;4936734;28;98429;-71
2023/09/16 08:50:40;;;;;;;;;;;;;;;29.88;37.60;100842.38;4919350;28;99746;-68
2023/09/16 08:53:09;;;;;;;;;;;;;;;30.26;37.29;100847.31;4914462;28;101103;-72
2023/09/16 08:55:35;;;;;;;;;;;;;;;30.68;37.27;100845.78;4947985;28;99460;-73
2023/09/16 08:58:05;;;;;;;;;;;;;;;31.10;37.28;100838.69;4923255;28;98803;-67
2023/09/16 09:00:31;;;;;;;;;;;;;;;31.50;37.10;100839.44;4901070;28;98210;-72
2023/09/16 09:02:57;;;;;;;;;;;;;;;31.81;36.79;100837.78;4938579;28;98492;-72
2023/09/16 09:05:23;;;;;;;;;;;;;;;32.15;36.71;100843.63;4952137;28;98476;-68
2023/09/16 09:07:49;;;;;;;;;;;;;;;32.47;36.95;100832.31;4917764;28;98127;-71
2023/09/16 09:10:15;;;;;;;;;;;;;;;32.72;36.58;100834.13;4936985;28;100285;-71
2023/09/16 09:12:42;;;;;;;;;;;;;;;32.92;36.94;100826.78;4920521;28;99590;-72
2023/09/16 09:15:15;;;;;;;;;;;;;;;33.12;37.07;100820.66;4921233;28;98477;-72
2023/09/16 09:17:54;;;;;;;;;;;;;;;33.24;36.72;100820.91;4921343;28;98291;-71
2023/09/16 09:20:27;;;;;;;;;;;;;;;33.27;36.82;100807.34;4918366;28;112297;-66
2023/09/16 09:22:54;;;;;;;;;;;;;;;33.43;36.71;100802.78;4935483;28;98431;-66
2023/09/16 09:25:24;;;;;;;;;;;;;;;33.79;36.68;100807.19;4923018;28;99159;-67
2023/09/16 09:27:51;;;;;;;;;;;;;;;34.16;36.65;100803.53;4934982;28;98467;-70
2023/09/16 09:30:26;;;;;;;;;;;;;;;34.52;36.41;100798.22;4952051;28;98267;-70
2023/09/16 09:32:55;;;;;;;;;;;;;;;35.02;36.14;100783.41;4921823;28;98373;-67
2023/09/16 09:35:25;;;;;;;;;;;;;;;35.26;35.92;100789.75;4940217;28;98548;-71
2023/09/16 09:37:51;;;;;;;;;;;;;;;35.52;35.80;100792.88;4904424;28;101255;-71
2023/09/16 09:40:17;;;;;;;;;;;;;;;35.72;35.83;100776.06;4910134;28;99897;-72
2023/09/16 09:42:45;;;;;;;;;;;;;;;36.18;35.45;100774.28;4923504;28;99656;-71
2023/09/16 09:45:11;;;;;;;;;;;;;;;36.57;34.90;100762.91;4938149;28;125959;-72
2023/09/16 09:47:38;;;;;;;;;;;;;;;36.81;34.85;100757.09;4928671;28;98407;-68
2023/09/16 09:50:05;;;;;;;;;;;;;;;36.99;35.17;100763.06;4938865;28;99027;-67
2023/09/16 09:52:31;;;;;;;;;;;;;;;36.96;34.90;100761.13;4924787;28;99546;-68
2023/09/16 09:54:58;;;;;;;;;;;;;;;37.04;35.39;100745.69;4898666;28;98727;-72
2023/09/16 09:57:24;;;;;;;;;;;;;;;37.25;35.31;100743.50;4937690;28;99018;-68
2023/09/16 09:59:50;;;;;;;;;;;;;;;37.45;34.84;100749.75;4934853;28;98456;-72
2023/09/16 10:02:17;;;;;;;;;;;;;;;37.58;34.86;100747.78;4916043;28;103934;-72
2023/09/16 10:04:43;;;;;;;;;;;;;;;37.63;34.90;100742.84;4936834;28;98367;-71
2023/09/16 10:07:09;;;;;;;;;;;;;;;37.62;34.56;100746.91;4906839;28;98052;-72
2023/09/16 10:09:35;;;;;;;;;;;;;;;37.72;35.02;100757.00;4928159;28;102687;-72
2023/09/16 10:12:01;;;;;;;;;;;;;;;37.94;34.97;100740.31;4922336;28;98393;-68
2023/09/16 10:14:27;;;;;;;;;;;;;;;38.13;34.41;100741.31;4919960;28;98216;-67
2023/09/16 10:16:54;;;;;;;;;;;;;;;38.40;34.70;100743.66;4940379;28;98320;-68
2023/09/16 10:19:23;;;;;;;;;;;;;;;38.73;34.46;100742.13;4903435;28;98557;-72
2023/09/16 10:21:52;;;;;;;;;;;;;;;38.89;33.92;100743.25;4939601;28;98738;-72
2023/09/16 10:24:18;;;;;;;;;;;;;;;38.83;34.00;100742.22;4930197;28;100069;-67
2023/09/16 10:26:44;;;;;;;;;;;;;;;38.97;34.44;100738.91;4930580;28;98508;-67
2023/09/16 10:29:10;;;;;;;;;;;;;;;39.02;34.03;100724.25;4909692;28;98682;-72
2023/09/16 10:31:36;;;;;;;;;;;;;;;39.10;34.22;100722.72;4938917;28;97949;-68
2023/09/16 10:34:03;;;;;;;;;;;;;;;39.19;34.20;100719.22;4923574;28;98203;-72
2023/09/16 10:36:29;;;;;;;;;;;;;;;39.36;34.32;100714.19;4923904;28;98338;-68
2023/09/16 10:38:55;;;;;;;;;;;;;;;39.52;34.05;100708.31;4954437;28;98317;-72
2023/09/16 10:41:22;;;;;;;;;;;;;;;39.67;33.90;100705.75;4924627;28;106399;-68
2023/09/16 10:43:48;;;;;;;;;;;;;;;39.71;33.92;100698.72;4925206;28;100405;-72
2023/09/16 10:46:14;;;;;;;;;;;;;;;39.73;33.87;100692.63;4939720;28;98018;-73
2023/09/16 10:48:40;;;;;;;;;;;;;;;39.65;33.98;100692.09;4907384;28;100462;-68
2023/09/16 10:51:08;;;;;;;;;;;;;;;39.46;34.17;100691.22;4920977;28;100114;-73
2023/09/16 10:53:36;;;;;;;;;;;;;;;39.30;34.24;100679.38;4937036;28;103812;-73
2023/09/16 10:56:05;;;;;;;;;;;;;;;39.08;34.46;100679.38;4906809;28;98192;-68
2023/09/16 10:58:48;;;;;;;;;;;;;;;38.85;35.04;100677.81;4920425;28;99937;-74
2023/09/16 11:01:22;;;;;;;;;;;;;;;38.63;34.70;100672.13;4915450;28;98241;-68
2023/09/16 11:03:53;;;;;;;;;;;;;;;38.54;34.86;100675.63;4936470;28;100090;-72
2023/09/16 11:06:19;;;;;;;;;;;;;;;38.75;34.68;100674.91;4925736;28;98114;-72
2023/09/16 11:08:45;;;;;;;;;;;;;;;38.93;34.47;100670.66;4903099;28;98558;-67
2023/09/16 11:11:11;;;;;;;;;;;;;;;39.02;34.13;100670.72;4930947;28;102287;-67
2023/09/16 11:13:37;;;;;;;;;;;;;;;39.18;34.27;100678.19;4879601;28;98456;-67
2023/09/16 11:16:03;;;;;;;;;;;;;;;39.03;34.27;100669.50;4880147;28;109229;-68
2023/09/16 11:18:29;;;;;;;;;;;;;;;39.04;34.37;100669.03;4936497;28;103647;-68
2023/09/16 11:20:55;;;;;;;;;;;;;;;39.00;34.32;100667.59;4880081;28;99500;-68
2023/09/16 11:23:22;;;;;;;;;;;;;;;38.93;34.02;100671.44;4916377;28;125920;-72
2023/09/16 11:25:47;;;;;;;;;;;;;;;38.82;34.17;100659.00;4878426;28;105227;-72
2023/09/16 11:28:18;;;;;;;;;;;;;;;38.55;34.62;100672.38;4897537;28;128877;-72
2023/09/16 11:31:13;;;;;;;;;;;;;;;38.36;34.33;100661.38;4901955;28;98559;-68
2023/09/16 11:33:39;;;;;;;;;;;;;;;38.05;34.47;100659.19;4892577;28;98375;-71
2023/09/16 11:36:19;;;;;;;;;;;;;;;37.88;34.77;100654.94;4897823;28;112274;-73
2023/09/16 11:39:06;;;;;;;;;;;;;;;37.72;34.79;100650.97;4908130;28;101248;-71
2023/09/16 11:41:33;;;;;;;;;;;;;;;37.62;34.80;100649.31;4917871;28;98091;-72
2023/09/16 11:44:00;;;;;;;;;;;;;;;37.48;34.87;100646.91;4877265;28;98304;-71
2023/09/16 11:46:26;;;;;;;;;;;;;;;37.35;35.21;100636.44;4881706;28;99871;-73
2023/09/16 11:49:13;;;;;;;;;;;;;;;37.15;35.50;100623.81;4904288;28;98263;-72
2023/09/16 11:51:40;;;;;;;;;;;;;;;37.00;35.67;100634.69;4881309;28;98255;-72
2023/09/16 11:54:07;;;;;;;;;;;;;;;36.83;35.37;100636.75;4886671;28;98346;-72
2023/09/16 11:56:40;;;;;;;;;;;;;;;36.61;35.51;100633.72;4903722;28;99313;-67
2023/09/16 11:59:06;;;;;;;;;;;;;;;36.54;35.92;100633.91;4885621;28;98255;-67
2023/09/16 12:01:37;;;;;;;;;;;;;;;36.54;35.78;100631.13;4917355;28;98746;-73
2023/09/16 12:04:04;;;;;;;;;;;;;;;36.36;35.88;100635.16;4934391;28;98649;-68
2023/09/16 12:06:31;;;;;;;;;;;;;;;36.10;35.83;100625.03;4915935;28;99002;-68
2023/09/16 12:08:58;;;;;;;;;;;;;;;35.99;35.84;100619.66;4919076;28;98359;-72
2023/09/16 12:11:26;;;;;;;;;;;;;;;35.87;36.22;100621.13;4899759;28;98850;-66
2023/09/16 12:13:54;;;;;;;;;;;;;;;35.79;36.09;100624.53;4900876;28;99587;-67
2023/09/16 12:16:21;;;;;;;;;;;;;;;35.62;35.99;100607.72;4880923;28;98629;-72
2023/09/16 12:18:47;;;;;;;;;;;;;;;35.51;36.08;100597.97;4900403;28;98388;-72
2023/09/16 12:21:15;;;;;;;;;;;;;;;35.45;36.28;100602.47;4899264;28;98564;-68
2023/09/16 12:23:42;;;;;;;;;;;;;;;35.34;36.31;100605.56;4917999;28;98249;-75
2023/09/16 12:26:12;;;;;;;;;;;;;;;35.07;36.33;100600.91;4917287;28;98253;-67
2023/09/16 12:28:39;;;;;;;;;;;;;;;34.84;36.41;100598.97;4918183;28;99810;-73
2023/09/16 12:31:09;;;;;;;;;;;;;;;34.74;36.48;100585.19;4928975;28;99595;-73
2023/09/16 12:33:39;;;;;;;;;;;;;;;34.66;36.62;100587.31;4901929;28;98373;-68
2023/09/16 12:36:06;;;;;;;;;;;;;;;34.62;36.37;100587.38;4916726;28;98215;-73
2023/09/16 12:38:36;;;;;;;;;;;;;;;34.49;36.59;100580.84;4913028;28;98627;-73